sensor_id;sensor_type;location;lat;lon;timestamp;pressure;altitude;pressure_sealevel;temperature
71630;BMP280;59479;51.902;8.212;2023-04-03T00:01:09;102464.72;;;7.14
71630;BMP280;59479;51.902;8.212;2023-04-03T00:03:34;102469.88;;;7.17
71630;BMP280;59479;51.902;8.212;2023-04-03T00:06:00;102469.94;;;7.18
71630;BMP280;59479;51.902;8.212;2023-04-03T00:08:25;102462.38;;;7.17
71630;BMP280;59479;51.902;8.212;2023-04-03T00:10:51;102461.22;;;7.09
71630;BMP280;59479;51.902;8.212;2023-04-03T00:13:17;102467.84;;;7.09
71630;BMP280;59479;51.902;8.212;2023-04-03T00:15:42;102469.97;;;7.00
71630;BMP280;59479;51.902;8.212;2023-04-03T00:18:08;102480.09;;;7.03
71630;BMP280;59479;51.902;8.212;2023-04-03T00:20:34;102474.38;;;6.86
71630;BMP280;59479;51.902;8.212;2023-04-03T00:23:00;102478.22;;;6.80
71630;BMP280;59479;51.902;8.212;2023-04-03T00:25:25;102478.63;;;6.89
71630;BMP280;59479;51.902;8.212;2023-04-03T00:27:51;102483.75;;;6.92
71630;BMP280;59479;51.902;8.212;2023-04-03T00:30:18;102480.28;;;6.88
71630;BMP280;59479;51.902;8.212;2023-04-03T00:32:43;102486.34;;;6.93
71630;BMP280;59479;51.902;8.212;2023-04-03T00:35:09;102489.34;;;6.86
71630;BMP280;59479;51.902;8.212;2023-04-03T00:37:34;102488.09;;;6.77
71630;BMP280;59479;51.902;8.212;2023-04-03T00:40:00;102492.09;;;6.73
71630;BMP280;59479;51.902;8.212;2023-04-03T00:42:26;102499.38;;;6.69
71630;BMP280;59479;51.902;8.212;2023-04-03T00:47:23;102490.91;;;6.66
71630;BMP280;59479;51.902;8.212;2023-04-03T00:49:50;102493.91;;;6.59
71630;BMP280;59479;51.902;8.212;2023-04-03T00:52:19;102501.84;;;6.68
71630;BMP280;59479;51.902;8.212;2023-04-03T00:54:47;102497.94;;;6.74
71630;BMP280;59479;51.902;8.212;2023-04-03T00:57:14;102496.94;;;6.70
71630;BMP280;59479;51.902;8.212;2023-04-03T00:59:46;102492.75;;;6.69
71630;BMP280;59479;51.902;8.212;2023-04-03T01:02:13;102490.66;;;6.78
71630;BMP280;59479;51.902;8.212;2023-04-03T01:04:41;102489.53;;;6.72
71630;BMP280;59479;51.902;8.212;2023-04-03T01:07:15;102491.03;;;6.68
71630;BMP280;59479;51.902;8.212;2023-04-03T01:09:41;102500.63;;;6.60
71630;BMP280;59479;51.902;8.212;2023-04-03T01:14:41;102489.00;;;6.60
71630;BMP280;59479;51.902;8.212;2023-04-03T01:17:38;102493.78;;;6.56
71630;BMP280;59479;51.902;8.212;2023-04-03T01:22:50;102496.84;;;6.50
71630;BMP280;59479;51.902;8.212;2023-04-03T01:25:19;102490.88;;;6.47
71630;BMP280;59479;51.902;8.212;2023-04-03T01:27:44;102498.13;;;6.42
71630;BMP280;59479;51.902;8.212;2023-04-03T01:30:10;102495.03;;;6.46
71630;BMP280;59479;51.902;8.212;2023-04-03T01:32:36;102501.53;;;6.43
71630;BMP280;59479;51.902;8.212;2023-04-03T01:35:01;102503.03;;;6.39
71630;BMP280;59479;51.902;8.212;2023-04-03T01:37:26;102503.88;;;6.40
71630;BMP280;59479;51.902;8.212;2023-04-03T01:39:51;102512.03;;;6.36
71630;BMP280;59479;51.902;8.212;2023-04-03T01:42:17;102501.03;;;6.32
71630;BMP280;59479;51.902;8.212;2023-04-03T01:44:42;102510.72;;;6.27
71630;BMP280;59479;51.902;8.212;2023-04-03T01:47:08;102506.56;;;6.27
71630;BMP280;59479;51.902;8.212;2023-04-03T01:49:33;102519.72;;;6.23
71630;BMP280;59479;51.902;8.212;2023-04-03T01:51:58;102528.22;;;6.27
71630;BMP280;59479;51.902;8.212;2023-04-03T01:54:24;102514.28;;;6.31
71630;BMP280;59479;51.902;8.212;2023-04-03T01:56:49;102519.78;;;6.25
71630;BMP280;59479;51.902;8.212;2023-04-03T01:59:14;102517.06;;;6.20
71630;BMP280;59479;51.902;8.212;2023-04-03T02:01:42;102518.91;;;6.24
71630;BMP280;59479;51.902;8.212;2023-04-03T02:04:08;102511.84;;;6.16
71630;BMP280;59479;51.902;8.212;2023-04-03T02:06:34;102514.69;;;6.06
71630;BMP280;59479;51.902;8.212;2023-04-03T02:08:59;102515.72;;;6.09
71630;BMP280;59479;51.902;8.212;2023-04-03T02:11:25;102515.59;;;6.06
71630;BMP280;59479;51.902;8.212;2023-04-03T02:13:50;102515.44;;;6.03
71630;BMP280;59479;51.902;8.212;2023-04-03T02:16:15;102517.69;;;5.99
71630;BMP280;59479;51.902;8.212;2023-04-03T02:18:41;102513.13;;;5.90
71630;BMP280;59479;51.902;8.212;2023-04-03T02:21:06;102513.28;;;5.93
71630;BMP280;59479;51.902;8.212;2023-04-03T02:23:32;102513.28;;;5.93
71630;BMP280;59479;51.902;8.212;2023-04-03T02:26:07;102515.53;;;5.89
71630;BMP280;59479;51.902;8.212;2023-04-03T02:28:33;102514.53;;;5.85
71630;BMP280;59479;51.902;8.212;2023-04-03T02:30:58;102512.63;;;5.80
71630;BMP280;59479;51.902;8.212;2023-04-03T02:33:23;102512.69;;;5.82
71630;BMP280;59479;51.902;8.212;2023-04-03T02:35:53;102517.69;;;5.82
71630;BMP280;59479;51.902;8.212;2023-04-03T02:38:18;102520.81;;;5.78
71630;BMP280;59479;51.902;8.212;2023-04-03T02:40:43;102530.03;;;5.63
71630;BMP280;59479;51.902;8.212;2023-04-03T02:43:09;102533.94;;;5.58
71630;BMP280;59479;51.902;8.212;2023-04-03T02:45:35;102532.59;;;5.64
71630;BMP280;59479;51.902;8.212;2023-04-03T02:48:00;102530.03;;;5.63
71630;BMP280;59479;51.902;8.212;2023-04-03T02:50:25;102531.56;;;5.61
71630;BMP280;59479;51.902;8.212;2023-04-03T02:52:51;102534.22;;;5.64
71630;BMP280;59479;51.902;8.212;2023-04-03T02:55:16;102525.88;;;5.63
71630;BMP280;59479;51.902;8.212;2023-04-03T02:57:41;102529.38;;;5.67
71630;BMP280;59479;51.902;8.212;2023-04-03T03:00:07;102528.94;;;5.58
71630;BMP280;59479;51.902;8.212;2023-04-03T03:02:33;102533.28;;;5.62
71630;BMP280;59479;51.902;8.212;2023-04-03T03:04:59;102534.22;;;5.64
71630;BMP280;59479;51.902;8.212;2023-04-03T03:07:24;102531.72;;;5.64
71630;BMP280;59479;51.902;8.212;2023-04-03T03:09:51;102531.72;;;5.64
71630;BMP280;59479;51.902;8.212;2023-04-03T03:12:16;102529.31;;;5.65
71630;BMP280;59479;51.902;8.212;2023-04-03T03:14:46;102533.44;;;5.65
71630;BMP280;59479;51.902;8.212;2023-04-03T03:17:11;102525.97;;;5.65
71630;BMP280;59479;51.902;8.212;2023-04-03T03:19:37;102532.44;;;5.61
71630;BMP280;59479;51.902;8.212;2023-04-03T03:22:02;102533.28;;;5.62
71630;BMP280;59479;51.902;8.212;2023-04-03T03:24:28;102529.22;;;5.64
71630;BMP280;59479;51.902;8.212;2023-04-03T03:26:53;102538.13;;;5.59
71630;BMP280;59479;51.902;8.212;2023-04-03T03:29:18;102533.13;;;5.59
71630;BMP280;59479;51.902;8.212;2023-04-03T03:31:44;102538.28;;;5.62
71630;BMP280;59479;51.902;8.212;2023-04-03T03:34:09;102534.00;;;5.59
71630;BMP280;59479;51.902;8.212;2023-04-03T03:36:35;102536.44;;;5.58
71630;BMP280;59479;51.902;8.212;2023-04-03T03:39:00;102533.69;;;5.53
71630;BMP280;59479;51.902;8.212;2023-04-03T03:41:25;102541.19;;;5.53
71630;BMP280;59479;51.902;8.212;2023-04-03T03:43:51;102543.34;;;5.47
71630;BMP280;59479;51.902;8.212;2023-04-03T03:46:16;102535.19;;;5.50
71630;BMP280;59479;51.902;8.212;2023-04-03T03:48:42;102545.16;;;5.50
71630;BMP280;59479;51.902;8.212;2023-04-03T03:51:07;102540.84;;;5.47
71630;BMP280;59479;51.902;8.212;2023-04-03T03:53:32;102540.66;;;5.43
71630;BMP280;59479;51.902;8.212;2023-04-03T03:55:57;102541.25;;;5.39
71630;BMP280;59479;51.902;8.212;2023-04-03T03:58:23;102543.47;;;5.33
71630;BMP280;59479;51.902;8.212;2023-04-03T04:00:48;102547.66;;;5.34
71630;BMP280;59479;51.902;8.212;2023-04-03T04:03:14;102549.22;;;5.32
71630;BMP280;59479;51.902;8.212;2023-04-03T04:05:39;102548.38;;;5.32
71630;BMP280;59479;51.902;8.212;2023-04-03T04:08:05;102559.66;;;5.25
71630;BMP280;59479;51.902;8.212;2023-04-03T04:10:30;102550.94;;;5.33
71630;BMP280;59479;51.902;8.212;2023-04-03T04:12:55;102555.94;;;5.33
71630;BMP280;59479;51.902;8.212;2023-04-03T04:15:20;102549.69;;;5.25
71630;BMP280;59479;51.902;8.212;2023-04-03T04:17:47;102558.66;;;5.22
71630;BMP280;59479;51.902;8.212;2023-04-03T04:20:12;102560.22;;;5.20
71630;BMP280;59479;51.902;8.212;2023-04-03T04:22:37;102564.34;;;5.19
71630;BMP280;59479;51.902;8.212;2023-04-03T04:25:04;102562.91;;;5.24
71630;BMP280;59479;51.902;8.212;2023-04-03T04:27:29;102565.75;;;5.14
71630;BMP280;59479;51.902;8.212;2023-04-03T04:29:55;102567.78;;;5.21
71630;BMP280;59479;51.902;8.212;2023-04-03T04:32:20;102574.84;;;5.14
71630;BMP280;59479;51.902;8.212;2023-04-03T04:34:45;102574.16;;;5.16
71630;BMP280;59479;51.902;8.212;2023-04-03T04:37:10;102573.44;;;5.19
71630;BMP280;59479;51.902;8.212;2023-04-03T04:39:36;102570.66;;;5.13
71630;BMP280;59479;51.902;8.212;2023-04-03T04:42:01;102575.22;;;5.05
71630;BMP280;59479;51.902;8.212;2023-04-03T04:44:27;102573.53;;;5.04
71630;BMP280;59479;51.902;8.212;2023-04-03T04:46:52;102587.75;;;5.07
71630;BMP280;59479;51.902;8.212;2023-04-03T04:49:17;102582.47;;;5.01
71630;BMP280;59479;51.902;8.212;2023-04-03T04:51:42;102585.81;;;5.01
71630;BMP280;59479;51.902;8.212;2023-04-03T04:54:08;102583.91;;;4.98
71630;BMP280;59479;51.902;8.212;2023-04-03T04:56:33;102588.91;;;4.98
71630;BMP280;59479;51.902;8.212;2023-04-03T04:58:58;102585.66;;;4.99
71630;BMP280;59479;51.902;8.212;2023-04-03T05:01:24;102587.22;;;4.97
71630;BMP280;59479;51.902;8.212;2023-04-03T05:03:50;102586.75;;;4.88
71630;BMP280;59479;51.902;8.212;2023-04-03T05:06:15;102586.47;;;4.83
71630;BMP280;59479;51.902;8.212;2023-04-03T05:08:40;102581.50;;;4.83
71630;BMP280;59479;51.902;8.212;2023-04-03T05:11:05;102594.03;;;4.85
71630;BMP280;59479;51.902;8.212;2023-04-03T05:13:31;102602.72;;;4.77
71630;BMP280;59479;51.902;8.212;2023-04-03T05:15:56;102605.06;;;4.74
71630;BMP280;59479;51.902;8.212;2023-04-03T05:18:21;102606.06;;;4.77
71630;BMP280;59479;51.902;8.212;2023-04-03T05:20:49;102602.66;;;4.75
71630;BMP280;59479;51.902;8.212;2023-04-03T05:23:15;102608.81;;;4.82
71630;BMP280;59479;51.902;8.212;2023-04-03T05:25:40;102603.00;;;4.81
71630;BMP280;59479;51.902;8.212;2023-04-03T05:28:06;102612.34;;;4.71
71630;BMP280;59479;51.902;8.212;2023-04-03T05:30:32;102608.69;;;4.64
71630;BMP280;59479;51.902;8.212;2023-04-03T05:32:58;102616.41;;;4.69
71630;BMP280;59479;51.902;8.212;2023-04-03T05:35:24;102617.03;;;4.65
71630;BMP280;59479;51.902;8.212;2023-04-03T05:37:50;102614.84;;;4.71
71630;BMP280;59479;51.902;8.212;2023-04-03T05:40:15;102617.78;;;4.64
71630;BMP280;59479;51.902;8.212;2023-04-03T05:42:41;102620.72;;;4.57
71630;BMP280;59479;51.902;8.212;2023-04-03T05:45:06;102625.38;;;4.51
71630;BMP280;59479;51.902;8.212;2023-04-03T05:47:31;102623.47;;;4.47
71630;BMP280;59479;51.902;8.212;2023-04-03T05:49:57;102628.47;;;4.47
71630;BMP280;59479;51.902;8.212;2023-04-03T05:52:30;102635.16;;;4.48
71630;BMP280;59479;51.902;8.212;2023-04-03T05:54:57;102638.59;;;4.50
71630;BMP280;59479;51.902;8.212;2023-04-03T05:57:22;102643.94;;;4.42
71630;BMP280;59479;51.902;8.212;2023-04-03T05:59:48;102643.16;;;4.43
71630;BMP280;59479;51.902;8.212;2023-04-03T06:02:16;102649.06;;;4.30
71630;BMP280;59479;51.902;8.212;2023-04-03T06:04:42;102651.22;;;4.39
71630;BMP280;59479;51.902;8.212;2023-04-03T06:07:11;102648.31;;;4.31
71630;BMP280;59479;51.902;8.212;2023-04-03T06:09:37;102643.50;;;4.20
71630;BMP280;59479;51.902;8.212;2023-04-03T06:12:02;102658.00;;;4.27
71630;BMP280;59479;51.902;8.212;2023-04-03T06:14:28;102664.97;;;4.18
71630;BMP280;59479;51.902;8.212;2023-04-03T06:16:53;102660.56;;;4.14
71630;BMP280;59479;51.902;8.212;2023-04-03T06:19:19;102662.94;;;4.13
71630;BMP280;59479;51.902;8.212;2023-04-03T06:21:45;102660.22;;;4.08
71630;BMP280;59479;51.902;8.212;2023-04-03T06:24:15;102667.69;;;4.08
71630;BMP280;59479;51.902;8.212;2023-04-03T06:26:41;102666.06;;;4.09
71630;BMP280;59479;51.902;8.212;2023-04-03T06:29:06;102665.03;;;4.05
71630;BMP280;59479;51.902;8.212;2023-04-03T06:31:32;102658.59;;;4.09
71630;BMP280;59479;51.902;8.212;2023-04-03T06:33:57;102671.03;;;4.09
71630;BMP280;59479;51.902;8.212;2023-04-03T06:36:23;102660.66;;;4.16
71630;BMP280;59479;51.902;8.212;2023-04-03T06:38:48;102667.09;;;4.12
71630;BMP280;59479;51.902;8.212;2023-04-03T06:41:14;102661.59;;;4.03
71630;BMP280;59479;51.902;8.212;2023-04-03T06:43:40;102661.84;;;4.08
71630;BMP280;59479;51.902;8.212;2023-04-03T06:46:05;102664.50;;;4.11
71630;BMP280;59479;51.902;8.212;2023-04-03T06:48:31;102663.31;;;4.18
71630;BMP280;59479;51.902;8.212;2023-04-03T06:50:57;102665.47;;;4.27
71630;BMP280;59479;51.902;8.212;2023-04-03T06:53:22;102664.72;;;4.28
71630;BMP280;59479;51.902;8.212;2023-04-03T06:55:47;102669.16;;;4.33
71630;BMP280;59479;51.902;8.212;2023-04-03T06:58:13;102675.53;;;4.28
71630;BMP280;59479;51.902;8.212;2023-04-03T07:00:40;102686.69;;;4.35
71630;BMP280;59479;51.902;8.212;2023-04-03T07:03:06;102692.16;;;4.29
71630;BMP280;59479;51.902;8.212;2023-04-03T07:05:31;102700.22;;;4.25
71630;BMP280;59479;51.902;8.212;2023-04-03T07:07:57;102699.09;;;4.20
71630;BMP280;59479;51.902;8.212;2023-04-03T07:10:23;102706.16;;;4.27
71630;BMP280;59479;51.902;8.212;2023-04-03T07:12:48;102702.63;;;4.24
71630;BMP280;59479;51.902;8.212;2023-04-03T07:15:13;102703.31;;;4.21
71630;BMP280;59479;51.902;8.212;2023-04-03T07:17:39;102717.47;;;4.22
71630;BMP280;59479;51.902;8.212;2023-04-03T07:20:05;102706.47;;;4.19
71630;BMP280;59479;51.902;8.212;2023-04-03T07:22:31;102706.16;;;4.27
71630;BMP280;59479;51.902;8.212;2023-04-03T07:24:57;102713.13;;;4.33
71630;BMP280;59479;51.902;8.212;2023-04-03T07:27:24;102703.50;;;4.39
71630;BMP280;59479;51.902;8.212;2023-04-03T07:29:50;102707.72;;;4.40
71630;BMP280;59479;51.902;8.212;2023-04-03T07:32:16;102714.69;;;4.45
71630;BMP280;59479;51.902;8.212;2023-04-03T07:34:41;102707.97;;;4.44
71630;BMP280;59479;51.902;8.212;2023-04-03T07:37:07;102716.72;;;4.52
71630;BMP280;59479;51.902;8.212;2023-04-03T07:39:34;102724.22;;;4.52
71630;BMP280;59479;51.902;8.212;2023-04-03T07:41:59;102728.25;;;4.64
71630;BMP280;59479;51.902;8.212;2023-04-03T07:44:25;102728.69;;;4.72
71630;BMP280;59479;51.902;8.212;2023-04-03T07:46:51;102724.47;;;4.71
71630;BMP280;59479;51.902;8.212;2023-04-03T07:49:17;102722.75;;;4.70
71630;BMP280;59479;51.902;8.212;2023-04-03T07:51:43;102733.03;;;4.76
71630;BMP280;59479;51.902;8.212;2023-04-03T07:54:09;102733.00;;;4.74
71630;BMP280;59479;51.902;8.212;2023-04-03T07:56:34;102728.00;;;4.74
71630;BMP280;59479;51.902;8.212;2023-04-03T07:59:00;102736.25;;;4.88
71630;BMP280;59479;51.902;8.212;2023-04-03T08:01:25;102741.47;;;4.92
71630;BMP280;59479;51.902;8.212;2023-04-03T08:03:51;102740.94;;;4.98
71630;BMP280;59479;51.902;8.212;2023-04-03T08:06:16;102741.81;;;4.98
71630;BMP280;59479;51.902;8.212;2023-04-03T08:08:42;102738.69;;;5.02
71630;BMP280;59479;51.902;8.212;2023-04-03T08:11:07;102741.19;;;5.16
71630;BMP280;59479;51.902;8.212;2023-04-03T08:13:34;102731.22;;;5.16
71630;BMP280;59479;51.902;8.212;2023-04-03T08:16:11;102728.53;;;5.13
71630;BMP280;59479;51.902;8.212;2023-04-03T08:18:37;102743.69;;;5.16
71630;BMP280;59479;51.902;8.212;2023-04-03T08:21:09;102743.84;;;5.19
71630;BMP280;59479;51.902;8.212;2023-04-03T08:23:34;102740.56;;;5.20
71630;BMP280;59479;51.902;8.212;2023-04-03T08:26:06;102733.56;;;5.29
71630;BMP280;59479;51.902;8.212;2023-04-03T08:28:31;102737.97;;;5.33
71630;BMP280;59479;51.902;8.212;2023-04-03T08:31:02;102742.31;;;5.37
71630;BMP280;59479;51.902;8.212;2023-04-03T08:33:28;102737.25;;;5.36
71630;BMP280;59479;51.902;8.212;2023-04-03T08:35:53;102733.44;;;5.42
71630;BMP280;59479;51.902;8.212;2023-04-03T08:38:18;102734.81;;;5.51
71630;BMP280;59479;51.902;8.212;2023-04-03T08:40:43;102732.88;;;5.62
71630;BMP280;59479;51.902;8.212;2023-04-03T08:45:55;102723.00;;;5.79
71630;BMP280;59479;51.902;8.212;2023-04-03T08:48:29;102723.41;;;5.86
71630;BMP280;59479;51.902;8.212;2023-04-03T08:51:02;102723.25;;;5.84
71630;BMP280;59479;51.902;8.212;2023-04-03T08:53:33;102724.34;;;5.88
71630;BMP280;59479;51.902;8.212;2023-04-03T08:56:02;102713.28;;;5.99
71630;BMP280;59479;51.902;8.212;2023-04-03T08:58:34;102718.97;;;5.97
71630;BMP280;59479;51.902;8.212;2023-04-03T09:01:17;102718.66;;;6.07
71630;BMP280;59479;51.902;8.212;2023-04-03T09:03:43;102724.03;;;6.14
71630;BMP280;59479;51.902;8.212;2023-04-03T09:06:20;102718.09;;;6.28
71630;BMP280;59479;51.902;8.212;2023-04-03T09:08:53;102716.34;;;6.27
71630;BMP280;59479;51.902;8.212;2023-04-03T09:11:24;102720.09;;;6.35
71630;BMP280;59479;51.902;8.212;2023-04-03T09:14:13;102726.41;;;6.44
71630;BMP280;59479;51.902;8.212;2023-04-03T09:16:56;102721.00;;;6.53
71630;BMP280;59479;51.902;8.212;2023-04-03T09:22:24;102722.44;;;6.65
71630;BMP280;59479;51.902;8.212;2023-04-03T09:25:17;102739.09;;;6.65
71630;BMP280;59479;51.902;8.212;2023-04-03T09:27:41;102715.47;;;6.75
71630;BMP280;59479;51.902;8.212;2023-04-03T09:30:19;102731.84;;;6.86
71630;BMP280;59479;51.902;8.212;2023-04-03T09:32:46;102713.69;;;6.90
71630;BMP280;59479;51.902;8.212;2023-04-03T09:35:16;102704.91;;;6.98
71630;BMP280;59479;51.902;8.212;2023-04-03T09:37:45;102717.72;;;7.04
71630;BMP280;59479;51.902;8.212;2023-04-03T09:42:56;102716.19;;;7.08
71630;BMP280;59479;51.902;8.212;2023-04-03T09:45:34;102713.13;;;7.13
71630;BMP280;59479;51.902;8.212;2023-04-03T09:50:34;102710.31;;;7.24
71630;BMP280;59479;51.902;8.212;2023-04-03T09:53:05;102709.88;;;7.15
71630;BMP280;59479;51.902;8.212;2023-04-03T09:55:31;102716.41;;;7.29
71630;BMP280;59479;51.902;8.212;2023-04-03T09:58:05;102704.38;;;7.40
71630;BMP280;59479;51.902;8.212;2023-04-03T10:00:54;102703.69;;;7.44
71630;BMP280;59479;51.902;8.212;2023-04-03T10:03:28;102694.97;;;7.53
71630;BMP280;59479;51.902;8.212;2023-04-03T10:05:53;102688.78;;;7.64
71630;BMP280;59479;51.902;8.212;2023-04-03T10:08:30;102691.88;;;7.58
71630;BMP280;59479;51.902;8.212;2023-04-03T10:11:16;102682.59;;;7.75
71630;BMP280;59479;51.902;8.212;2023-04-03T10:13:57;102693.88;;;7.84
71630;BMP280;59479;51.902;8.212;2023-04-03T10:16:32;102699.97;;;7.72
71630;BMP280;59479;51.902;8.212;2023-04-03T10:19:13;102683.38;;;7.74
71630;BMP280;59479;51.902;8.212;2023-04-03T10:21:50;102677.66;;;7.95
71630;BMP280;59479;51.902;8.212;2023-04-03T10:24:21;102679.38;;;7.96
71630;BMP280;59479;51.902;8.212;2023-04-03T10:26:58;102681.56;;;8.09
71630;BMP280;59479;51.902;8.212;2023-04-03T10:35:20;102673.16;;;8.07
71630;BMP280;59479;51.902;8.212;2023-04-03T10:38:24;102671.38;;;8.04
71630;BMP280;59479;51.902;8.212;2023-04-03T10:41:15;102677.78;;;8.17
71630;BMP280;59479;51.902;8.212;2023-04-03T10:46:41;102674.28;;;8.13
71630;BMP280;59479;51.902;8.212;2023-04-03T10:51:45;102678.84;;;8.03
71630;BMP280;59479;51.902;8.212;2023-04-03T10:54:13;102680.28;;;8.17
71630;BMP280;59479;51.902;8.212;2023-04-03T10:56:50;102673.28;;;8.10
71630;BMP280;59479;51.902;8.212;2023-04-03T11:04:36;102667.84;;;8.38
71630;BMP280;59479;51.902;8.212;2023-04-03T11:07:20;102664.22;;;8.32
71630;BMP280;59479;51.902;8.212;2023-04-03T11:09:50;102662.25;;;8.44
71630;BMP280;59479;51.902;8.212;2023-04-03T11:12:39;102673.75;;;8.40
71630;BMP280;59479;51.902;8.212;2023-04-03T11:15:12;102659.69;;;8.42
71630;BMP280;59479;51.902;8.212;2023-04-03T11:17:43;102659.13;;;8.49
71630;BMP280;59479;51.902;8.212;2023-04-03T11:20:18;102648.28;;;8.50
71630;BMP280;59479;51.902;8.212;2023-04-03T11:22:50;102657.72;;;8.56
71630;BMP280;59479;51.902;8.212;2023-04-03T11:25:23;102653.56;;;8.36
71630;BMP280;59479;51.902;8.212;2023-04-03T11:27:57;102651.22;;;8.40
71630;BMP280;59479;51.902;8.212;2023-04-03T11:30:28;102650.44;;;8.41
71630;BMP280;59479;51.902;8.212;2023-04-03T11:33:12;102638.03;;;8.44
71630;BMP280;59479;51.902;8.212;2023-04-03T11:35:45;102635.53;;;8.44
71630;BMP280;59479;51.902;8.212;2023-04-03T11:38:19;102654.75;;;8.45
71630;BMP280;59479;51.902;8.212;2023-04-03T11:40:47;102643.16;;;8.47
71630;BMP280;59479;51.902;8.212;2023-04-03T11:43:27;102632.22;;;8.66
71630;BMP280;59479;51.902;8.212;2023-04-03T11:46:07;102634.09;;;8.71
71630;BMP280;59479;51.902;8.212;2023-04-03T11:51:37;102632.97;;;8.85
71630;BMP280;59479;51.902;8.212;2023-04-03T11:53:48;102627.50;;;8.95
71630;BMP280;59479;51.902;8.212;2023-04-03T12:01:53;102628.81;;;8.85
71630;BMP280;59479;51.902;8.212;2023-04-03T12:04:21;102624.66;;;8.86
71630;BMP280;59479;51.902;8.212;2023-04-03T12:11:48;102611.47;;;8.70
71630;BMP280;59479;51.902;8.212;2023-04-03T12:14:15;102609.88;;;8.72
71630;BMP280;59479;51.902;8.212;2023-04-03T12:16:45;102606.06;;;8.81
71630;BMP280;59479;51.902;8.212;2023-04-03T12:24:28;102588.19;;;8.94
71630;BMP280;59479;51.902;8.212;2023-04-03T12:40:26;102571.16;;;9.30
71630;BMP280;59479;51.902;8.212;2023-04-03T12:45:25;102568.13;;;9.40
71630;BMP280;59479;51.902;8.212;2023-04-03T12:47:52;102573.22;;;9.42
71630;BMP280;59479;51.902;8.212;2023-04-03T12:50:22;102573.38;;;9.46
71630;BMP280;59479;51.902;8.212;2023-04-03T12:53:19;102575.88;;;9.46
71630;BMP280;59479;51.902;8.212;2023-04-03T12:55:46;102573.25;;;9.43
71630;BMP280;59479;51.902;8.212;2023-04-03T12:58:29;102555.84;;;9.48
71630;BMP280;59479;51.902;8.212;2023-04-03T13:01:22;102560.03;;;9.47
71630;BMP280;59479;51.902;8.212;2023-04-03T13:03:58;102559.56;;;9.59
71630;BMP280;59479;51.902;8.212;2023-04-03T13:06:27;102548.31;;;9.71
71630;BMP280;59479;51.902;8.212;2023-04-03T13:08:58;102552.09;;;9.60
71630;BMP280;59479;51.902;8.212;2023-04-03T13:11:27;102545.38;;;9.59
71630;BMP280;59479;51.902;8.212;2023-04-03T13:14:03;102557.22;;;9.63
71630;BMP280;59479;51.902;8.212;2023-04-03T13:16:31;102559.69;;;9.62
71630;BMP280;59479;51.902;8.212;2023-04-03T13:18:57;102540.06;;;9.75
71630;BMP280;59479;51.902;8.212;2023-04-03T13:21:28;102539.16;;;9.73
71630;BMP280;59479;51.902;8.212;2023-04-03T13:23:57;102539.25;;;9.76
71630;BMP280;59479;51.902;8.212;2023-04-03T13:26:28;102536.31;;;9.87
71630;BMP280;59479;51.902;8.212;2023-04-03T13:28:57;102528.13;;;9.93
71630;BMP280;59479;51.902;8.212;2023-04-03T13:31:29;102540.28;;;10.06
71630;BMP280;59479;51.902;8.212;2023-04-03T13:34:06;102541.69;;;9.98
71630;BMP280;59479;51.902;8.212;2023-04-03T13:36:38;102544.59;;;10.09
71630;BMP280;59479;51.902;8.212;2023-04-03T13:41:40;102536.84;;;10.04
71630;BMP280;59479;51.902;8.212;2023-04-03T13:44:17;102542.84;;;10.07
71630;BMP280;59479;51.902;8.212;2023-04-03T13:46:43;102517.72;;;10.07
71630;BMP280;59479;51.902;8.212;2023-04-03T13:49:30;102521.25;;;10.12
71630;BMP280;59479;51.902;8.212;2023-04-03T13:51:56;102521.38;;;10.16
71630;BMP280;59479;51.902;8.212;2023-04-03T13:54:39;102512.03;;;10.12
71630;BMP280;59479;51.902;8.212;2023-04-03T13:57:15;102518.59;;;10.07
71630;BMP280;59479;51.902;8.212;2023-04-03T13:59:42;102515.34;;;10.11
71630;BMP280;59479;51.902;8.212;2023-04-03T14:07:14;102495.91;;;10.06
71630;BMP280;59479;51.902;8.212;2023-04-03T14:09:39;102495.44;;;10.17
71630;BMP280;59479;51.902;8.212;2023-04-03T14:12:08;102491.25;;;10.18
71630;BMP280;59479;51.902;8.212;2023-04-03T14:14:36;102491.16;;;10.15
71630;BMP280;59479;51.902;8.212;2023-04-03T14:17:15;102498.94;;;10.22
71630;BMP280;59479;51.902;8.212;2023-04-03T14:19:41;102493.16;;;10.25
71630;BMP280;59479;51.902;8.212;2023-04-03T14:22:27;102493.41;;;10.32
71630;BMP280;59479;51.902;8.212;2023-04-03T14:24:53;102488.16;;;10.26
71630;BMP280;59479;51.902;8.212;2023-04-03T14:27:22;102494.38;;;10.37
71630;BMP280;59479;51.902;8.212;2023-04-03T14:29:49;102484.03;;;10.28
71630;BMP280;59479;51.902;8.212;2023-04-03T14:32:16;102474.28;;;10.37
71630;BMP280;59479;51.902;8.212;2023-04-03T14:34:43;102475.31;;;10.44
71630;BMP280;59479;51.902;8.212;2023-04-03T14:37:12;102473.69;;;10.46
71630;BMP280;59479;51.902;8.212;2023-04-03T14:39:37;102468.03;;;10.52
71630;BMP280;59479;51.902;8.212;2023-04-03T14:42:03;102475.78;;;10.60
71630;BMP280;59479;51.902;8.212;2023-04-03T14:44:29;102461.22;;;10.50
71630;BMP280;59479;51.902;8.212;2023-04-03T14:46:54;102463.28;;;10.34
71630;BMP280;59479;51.902;8.212;2023-04-03T14:49:24;102452.16;;;10.55
71630;BMP280;59479;51.902;8.212;2023-04-03T14:51:51;102453.41;;;10.69
71630;BMP280;59479;51.902;8.212;2023-04-03T14:54:20;102456.59;;;10.63
71630;BMP280;59479;51.902;8.212;2023-04-03T14:56:51;102451.50;;;10.62
71630;BMP280;59479;51.902;8.212;2023-04-03T14:59:17;102461.06;;;10.44
71630;BMP280;59479;51.902;8.212;2023-04-03T15:01:45;102450.56;;;10.57
71630;BMP280;59479;51.902;8.212;2023-04-03T15:04:13;102446.69;;;10.68
71630;BMP280;59479;51.902;8.212;2023-04-03T15:06:39;102453.47;;;10.72
71630;BMP280;59479;51.902;8.212;2023-04-03T15:09:04;102448.50;;;10.73
71630;BMP280;59479;51.902;8.212;2023-04-03T15:11:30;102439.78;;;10.91
71630;BMP280;59479;51.902;8.212;2023-04-03T15:13:55;102441.59;;;10.95
71630;BMP280;59479;51.902;8.212;2023-04-03T15:16:20;102438.00;;;10.88
71630;BMP280;59479;51.902;8.212;2023-04-03T15:18:47;102436.38;;;10.89
71630;BMP280;59479;51.902;8.212;2023-04-03T15:21:15;102442.75;;;10.77
71630;BMP280;59479;51.902;8.212;2023-04-03T15:23:41;102448.31;;;10.66
71630;BMP280;59479;51.902;8.212;2023-04-03T15:26:08;102443.41;;;10.72
71630;BMP280;59479;51.902;8.212;2023-04-03T15:31:00;102439.91;;;10.96
71630;BMP280;59479;51.902;8.212;2023-04-03T15:33:26;102445.34;;;11.11